sensor_id;sensor_type;location;lat;lon;timestamp;pressure;altitude;pressure_sealevel;temperature;humidity
35419;BME280;21525;41.240;16.500;2023-01-31T00:00:48;101407.31;;;13.09;51.29
35419;BME280;21525;41.240;16.500;2023-01-31T00:03:13;101406.97;;;12.66;51.61
35419;BME280;21525;41.240;16.500;2023-01-31T00:05:39;101408.00;;;13.28;50.49
35419;BME280;21525;41.240;16.500;2023-01-31T00:08:05;101407.59;;;12.87;51.17
35419;BME280;21525;41.240;16.500;2023-01-31T00:10:31;101404.66;;;13.17;50.48
35419;BME280;21525;41.240;16.500;2023-01-31T00:12:57;101414.50;;;12.92;51.42
35419;BME280;21525;41.240;16.500;2023-01-31T00:15:23;101414.75;;;13.43;49.83
35419;BME280;21525;41.240;16.500;2023-01-31T00:17:48;101420.06;;;13.37;50.21
35419;BME280;21525;41.240;16.500;2023-01-31T00:20:14;101411.31;;;13.38;49.79
35419;BME280;21525;41.240;16.500;2023-01-31T00:22:40;101406.41;;;13.12;50.51
35419;BME280;21525;41.240;16.500;2023-01-31T00:25:06;101420.44;;;13.05;51.39
35419;BME280;21525;41.240;16.500;2023-01-31T00:27:32;101417.94;;;12.96;51.78
35419;BME280;21525;41.240;16.500;2023-01-31T00:29:58;101439.97;;;12.69;51.51
35419;BME280;21525;41.240;16.500;2023-01-31T00:32:24;101436.22;;;12.97;51.69
35419;BME280;21525;41.240;16.500;2023-01-31T00:34:52;101438.53;;;13.23;51.02
35419;BME280;21525;41.240;16.500;2023-01-31T00:37:20;101431.84;;;12.99;51.25
35419;BME280;21525;41.240;16.500;2023-01-31T00:39:46;101439.69;;;12.99;51.65
35419;BME280;21525;41.240;16.500;2023-01-31T00:42:12;101437.19;;;12.89;51.77
35419;BME280;21525;41.240;16.500;2023-01-31T00:44:40;101446.44;;;13.17;51.37
35419;BME280;21525;41.240;16.500;2023-01-31T00:47:05;101438.84;;;12.96;51.81
35419;BME280;21525;41.240;16.500;2023-01-31T00:49:31;101436.97;;;13.05;51.72
35419;BME280;21525;41.240;16.500;2023-01-31T00:51:57;101435.34;;;12.98;52.04
35419;BME280;21525;41.240;16.500;2023-01-31T00:54:23;101445.28;;;12.64;53.29
35419;BME280;21525;41.240;16.500;2023-01-31T00:56:49;101441.13;;;13.25;52.00
35419;BME280;21525;41.240;16.500;2023-01-31T00:59:15;101446.88;;;13.51;51.49
35419;BME280;21525;41.240;16.500;2023-01-31T01:01:41;101439.41;;;13.24;51.69
35419;BME280;21525;41.240;16.500;2023-01-31T01:04:07;101450.81;;;13.13;52.13
35419;BME280;21525;41.240;16.500;2023-01-31T01:06:33;101446.47;;;13.11;52.09
35419;BME280;21525;41.240;16.500;2023-01-31T01:08:59;101449.78;;;13.30;51.92
35419;BME280;21525;41.240;16.500;2023-01-31T01:11:28;101454.06;;;13.34;52.08
35419;BME280;21525;41.240;16.500;2023-01-31T01:13:55;101440.94;;;13.98;50.60
35419;BME280;21525;41.240;16.500;2023-01-31T01:16:25;101449.94;;;13.16;52.26
35419;BME280;21525;41.240;16.500;2023-01-31T01:18:51;101446.31;;;13.29;52.26
35419;BME280;21525;41.240;16.500;2023-01-31T01:21:29;101452.75;;;12.99;53.23
35419;BME280;21525;41.240;16.500;2023-01-31T01:24:00;101463.69;;;13.32;52.83
35419;BME280;21525;41.240;16.500;2023-01-31T01:26:28;101454.50;;;12.96;53.68
35419;BME280;21525;41.240;16.500;2023-01-31T01:28:56;101460.84;;;13.50;52.49
35419;BME280;21525;41.240;16.500;2023-01-31T01:31:23;101465.44;;;12.45;54.51
35419;BME280;21525;41.240;16.500;2023-01-31T01:34:06;101484.09;;;12.96;53.92
35419;BME280;21525;41.240;16.500;2023-01-31T01:36:34;101474.44;;;13.73;51.97
35419;BME280;21525;41.240;16.500;2023-01-31T01:39:01;101484.44;;;13.42;52.46
35419;BME280;21525;41.240;16.500;2023-01-31T01:41:27;101484.91;;;13.73;51.45
35419;BME280;21525;41.240;16.500;2023-01-31T01:43:57;101486.28;;;13.97;50.94
35419;BME280;21525;41.240;16.500;2023-01-31T01:46:36;101485.97;;;13.60;52.09
35419;BME280;21525;41.240;16.500;2023-01-31T01:49:18;101485.88;;;13.65;51.76
35419;BME280;21525;41.240;16.500;2023-01-31T01:51:46;101486.94;;;13.52;51.66
35419;BME280;21525;41.240;16.500;2023-01-31T01:54:21;101478.56;;;13.91;51.42
35419;BME280;21525;41.240;16.500;2023-01-31T01:56:55;101475.81;;;13.34;52.21
35419;BME280;21525;41.240;16.500;2023-01-31T02:02:29;101471.59;;;13.90;51.08
35419;BME280;21525;41.240;16.500;2023-01-31T02:04:55;101482.34;;;13.69;51.34
35419;BME280;21525;41.240;16.500;2023-01-31T02:07:22;101476.25;;;13.68;52.17
35419;BME280;21525;41.240;16.500;2023-01-31T02:09:53;101467.16;;;13.95;51.43
35419;BME280;21525;41.240;16.500;2023-01-31T02:12:22;101464.94;;;13.68;51.37
35419;BME280;21525;41.240;16.500;2023-01-31T02:14:49;101455.16;;;13.16;52.99
35419;BME280;21525;41.240;16.500;2023-01-31T02:17:18;101454.25;;;13.20;52.66
35419;BME280;21525;41.240;16.500;2023-01-31T02:19:59;101446.59;;;13.69;51.46
35419;BME280;21525;41.240;16.500;2023-01-31T02:28:39;101427.22;;;13.24;52.57
35419;BME280;21525;41.240;16.500;2023-01-31T02:33:51;101399.56;;;13.69;51.47
35419;BME280;21525;41.240;16.500;2023-01-31T02:44:51;101406.88;;;14.01;50.86
35419;BME280;21525;41.240;16.500;2023-01-31T02:52:34;101438.06;;;13.58;51.77
35419;BME280;21525;41.240;16.500;2023-01-31T02:55:29;101438.50;;;13.88;51.20
35419;BME280;21525;41.240;16.500;2023-01-31T02:58:18;101438.75;;;14.28;50.05
35419;BME280;21525;41.240;16.500;2023-01-31T03:00:46;101444.34;;;14.03;50.12
35419;BME280;21525;41.240;16.500;2023-01-31T03:03:23;101449.78;;;13.91;50.81
35419;BME280;21525;41.240;16.500;2023-01-31T03:08:34;101462.63;;;13.45;51.73
35419;BME280;21525;41.240;16.500;2023-01-31T03:11:03;101465.44;;;13.94;50.97
35419;BME280;21525;41.240;16.500;2023-01-31T03:13:37;101462.53;;;13.53;51.01
35419;BME280;21525;41.240;16.500;2023-01-31T03:16:31;101467.59;;;13.65;51.15
35419;BME280;21525;41.240;16.500;2023-01-31T03:19:32;101472.16;;;13.51;51.55
35419;BME280;21525;41.240;16.500;2023-01-31T03:22:06;101465.06;;;13.59;51.37
35419;BME280;21525;41.240;16.500;2023-01-31T03:24:35;101471.13;;;13.62;51.28
35419;BME280;21525;41.240;16.500;2023-01-31T03:27:02;101470.97;;;13.71;51.52
35419;BME280;21525;41.240;16.500;2023-01-31T03:29:33;101479.16;;;13.49;52.02
35419;BME280;21525;41.240;16.500;2023-01-31T03:32:06;101476.78;;;13.30;51.94
35419;BME280;21525;41.240;16.500;2023-01-31T03:34:36;101466.06;;;13.50;51.61
35419;BME280;21525;41.240;16.500;2023-01-31T03:39:59;101475.25;;;13.78;50.99
35419;BME280;21525;41.240;16.500;2023-01-31T03:42:44;101473.66;;;13.67;50.86
35419;BME280;21525;41.240;16.500;2023-01-31T03:48:01;101472.78;;;13.68;51.28
35419;BME280;21525;41.240;16.500;2023-01-31T03:50:40;101487.34;;;13.21;51.98
35419;BME280;21525;41.240;16.500;2023-01-31T03:53:21;101484.06;;;12.99;52.02
35419;BME280;21525;41.240;16.500;2023-01-31T03:56:02;101487.63;;;14.24;50.79
35419;BME280;21525;41.240;16.500;2023-01-31T03:58:34;101484.50;;;14.01;50.90
35419;BME280;21525;41.240;16.500;2023-01-31T04:01:04;101480.63;;;13.66;50.45
35419;BME280;21525;41.240;16.500;2023-01-31T04:03:37;101490.97;;;13.75;50.39
35419;BME280;21525;41.240;16.500;2023-01-31T04:06:04;101492.84;;;13.66;51.61
35419;BME280;21525;41.240;16.500;2023-01-31T04:08:32;101490.50;;;13.46;51.86
35419;BME280;21525;41.240;16.500;2023-01-31T04:11:05;101486.22;;;13.40;50.92
35419;BME280;21525;41.240;16.500;2023-01-31T04:13:33;101489.09;;;13.85;50.63
35419;BME280;21525;41.240;16.500;2023-01-31T04:15:59;101486.44;;;13.88;50.29
35419;BME280;21525;41.240;16.500;2023-01-31T04:18:25;101479.84;;;14.21;49.93
35419;BME280;21525;41.240;16.500;2023-01-31T04:20:51;101479.19;;;14.07;49.78
35419;BME280;21525;41.240;16.500;2023-01-31T04:23:16;101481.59;;;14.21;49.23
35419;BME280;21525;41.240;16.500;2023-01-31T04:25:44;101477.97;;;13.71;49.78
35419;BME280;21525;41.240;16.500;2023-01-31T04:28:09;101487.75;;;13.57;50.05
35419;BME280;21525;41.240;16.500;2023-01-31T04:30:36;101476.09;;;13.81;49.79
35419;BME280;21525;41.240;16.500;2023-01-31T04:33:01;101480.13;;;14.01;48.72
35419;BME280;21525;41.240;16.500;2023-01-31T04:35:27;101474.50;;;14.29;48.14
35419;BME280;21525;41.240;16.500;2023-01-31T04:37:53;101469.72;;;13.98;48.68
35419;BME280;21525;41.240;16.500;2023-01-31T04:40:19;101474.00;;;14.04;49.01
35419;BME280;21525;41.240;16.500;2023-01-31T04:42:45;101478.94;;;14.24;48.18
35419;BME280;21525;41.240;16.500;2023-01-31T04:45:11;101484.00;;;14.33;47.74
35419;BME280;21525;41.240;16.500;2023-01-31T04:47:37;101478.28;;;15.09;46.20
35419;BME280;21525;41.240;16.500;2023-01-31T04:50:03;101483.31;;;14.22;47.56
35419;BME280;21525;41.240;16.500;2023-01-31T04:52:29;101480.69;;;14.23;48.03
35419;BME280;21525;41.240;16.500;2023-01-31T04:54:55;101487.22;;;13.95;48.43
35419;BME280;21525;41.240;16.500;2023-01-31T04:57:21;101486.72;;;14.79;47.02
35419;BME280;21525;41.240;16.500;2023-01-31T04:59:47;101493.63;;;14.83;47.12
35419;BME280;21525;41.240;16.500;2023-01-31T05:02:14;101502.06;;;14.50;47.74
35419;BME280;21525;41.240;16.500;2023-01-31T05:04:40;101506.94;;;14.17;48.47
35419;BME280;21525;41.240;16.500;2023-01-31T05:07:06;101505.38;;;14.04;48.32
35419;BME280;21525;41.240;16.500;2023-01-31T05:09:31;101509.75;;;14.60;48.16
35419;BME280;21525;41.240;16.500;2023-01-31T05:11:57;101512.22;;;14.12;49.32
35419;BME280;21525;41.240;16.500;2023-01-31T05:14:23;101512.75;;;14.34;48.86
35419;BME280;21525;41.240;16.500;2023-01-31T05:16:49;101524.56;;;14.03;49.84
35419;BME280;21525;41.240;16.500;2023-01-31T05:19:15;101517.19;;;13.71;50.42
35419;BME280;21525;41.240;16.500;2023-01-31T05:21:41;101522.75;;;14.08;50.67
35419;BME280;21525;41.240;16.500;2023-01-31T05:24:21;101524.09;;;14.33;50.33
35419;BME280;21525;41.240;16.500;2023-01-31T05:26:46;101535.22;;;13.91;51.54
35419;BME280;21525;41.240;16.500;2023-01-31T05:29:13;101524.06;;;13.78;51.49
35419;BME280;21525;41.240;16.500;2023-01-31T05:31:38;101523.41;;;13.62;53.06
35419;BME280;21525;41.240;16.500;2023-01-31T05:34:04;101538.88;;;13.79;52.42
35419;BME280;21525;41.240;16.500;2023-01-31T05:36:30;101539.53;;;13.96;53.21
35419;BME280;21525;41.240;16.500;2023-01-31T05:38:56;101530.25;;;14.31;53.11
35419;BME280;21525;41.240;16.500;2023-01-31T05:41:21;101533.69;;;14.34;53.63
35419;BME280;21525;41.240;16.500;2023-01-31T05:43:47;101537.56;;;14.10;53.15
35419;BME280;21525;41.240;16.500;2023-01-31T05:46:13;101550.03;;;14.52;52.91
35419;BME280;21525;41.240;16.500;2023-01-31T05:48:39;101537.50;;;14.13;53.67
35419;BME280;21525;41.240;16.500;2023-01-31T05:51:04;101544.38;;;14.21;53.96
35419;BME280;21525;41.240;16.500;2023-01-31T05:53:30;101539.94;;;14.27;54.03
35419;BME280;21525;41.240;16.500;2023-01-31T05:55:56;101540.13;;;14.69;53.76
35419;BME280;21525;41.240;16.500;2023-01-31T05:58:22;101555.69;;;13.60;56.86
35419;BME280;21525;41.240;16.500;2023-01-31T06:00:48;101555.47;;;13.75;57.40
35419;BME280;21525;41.240;16.500;2023-01-31T06:03:13;101551.94;;;14.42;55.92
35419;BME280;21525;41.240;16.500;2023-01-31T06:05:39;101560.88;;;14.26;56.09
35419;BME280;21525;41.240;16.500;2023-01-31T06:08:05;101566.34;;;14.09;56.33
35419;BME280;21525;41.240;16.500;2023-01-31T06:10:31;101567.91;;;13.58;58.11
35419;BME280;21525;41.240;16.500;2023-01-31T06:12:57;101585.38;;;14.20;56.55
35419;BME280;21525;41.240;16.500;2023-01-31T06:15:23;101582.72;;;14.25;56.86
35419;BME280;21525;41.240;16.500;2023-01-31T06:17:48;101586.88;;;13.72;57.89
35419;BME280;21525;41.240;16.500;2023-01-31T06:20:14;101592.19;;;14.89;55.54
35419;BME280;21525;41.240;16.500;2023-01-31T06:22:41;101595.47;;;13.85;57.19
35419;BME280;21525;41.240;16.500;2023-01-31T06:25:07;101592.88;;;14.46;56.04
35419;BME280;21525;41.240;16.500;2023-01-31T06:27:33;101600.38;;;14.07;57.64
35419;BME280;21525;41.240;16.500;2023-01-31T06:29:59;101600.44;;;14.64;55.78
35419;BME280;21525;41.240;16.500;2023-01-31T06:32:26;101604.41;;;14.30;57.39
35419;BME280;21525;41.240;16.500;2023-01-31T06:34:52;101610.56;;;14.29;56.87
35419;BME280;21525;41.240;16.500;2023-01-31T06:37:17;101609.09;;;14.69;56.59
35419;BME280;21525;41.240;16.500;2023-01-31T06:39:43;101611.91;;;14.59;56.29
35419;BME280;21525;41.240;16.500;2023-01-31T06:42:09;101618.31;;;14.33;57.35
35419;BME280;21525;41.240;16.500;2023-01-31T06:44:35;101626.28;;;14.87;55.76
35419;BME280;21525;41.240;16.500;2023-01-31T06:47:02;101630.03;;;14.69;57.25
35419;BME280;21525;41.240;16.500;2023-01-31T06:49:28;101641.31;;;14.74;56.48
35419;BME280;21525;41.240;16.500;2023-01-31T06:51:53;101641.31;;;14.74;55.77
35419;BME280;21525;41.240;16.500;2023-01-31T06:54:19;101643.03;;;14.77;56.05
35419;BME280;21525;41.240;16.500;2023-01-31T06:56:45;101639.19;;;14.96;55.43
35419;BME280;21525;41.240;16.500;2023-01-31T06:59:11;101644.03;;;15.22;54.79
35419;BME280;21525;41.240;16.500;2023-01-31T07:01:37;101649.25;;;15.24;54.50
35419;BME280;21525;41.240;16.500;2023-01-31T07:04:02;101654.66;;;15.13;54.80
35419;BME280;21525;41.240;16.500;2023-01-31T07:06:28;101649.03;;;14.84;55.79
35419;BME280;21525;41.240;16.500;2023-01-31T07:08:54;101652.19;;;15.04;55.94
35419;BME280;21525;41.240;16.500;2023-01-31T07:11:20;101654.28;;;14.82;56.25
35419;BME280;21525;41.240;16.500;2023-01-31T07:13:46;101659.34;;;14.94;56.08
35419;BME280;21525;41.240;16.500;2023-01-31T07:16:13;101666.88;;;16.08;53.41
35419;BME280;21525;41.240;16.500;2023-01-31T07:18:41;101661.78;;;16.81;52.51
35419;BME280;21525;41.240;16.500;2023-01-31T07:21:07;101674.50;;;16.20;52.02
35419;BME280;21525;41.240;16.500;2023-01-31T07:23:32;101674.31;;;18.04;48.84
35419;BME280;21525;41.240;16.500;2023-01-31T07:26:02;101675.66;;;18.46;46.44
35419;BME280;21525;41.240;16.500;2023-01-31T07:28:28;101664.59;;;18.91;46.62
35419;BME280;21525;41.240;16.500;2023-01-31T07:30:53;101668.09;;;18.92;45.22
35419;BME280;21525;41.240;16.500;2023-01-31T07:33:19;101677.63;;;18.10;46.35
35419;BME280;21525;41.240;16.500;2023-01-31T07:35:45;101683.47;;;17.23;47.77
35419;BME280;21525;41.240;16.500;2023-01-31T07:38:11;101678.84;;;18.86;46.19
35419;BME280;21525;41.240;16.500;2023-01-31T07:40:37;101695.31;;;17.74;46.89
35419;BME280;21525;41.240;16.500;2023-01-31T07:43:04;101695.19;;;17.79;47.76
35419;BME280;21525;41.240;16.500;2023-01-31T07:45:30;101696.84;;;19.52;44.67
35419;BME280;21525;41.240;16.500;2023-01-31T07:47:59;101690.00;;;21.51;40.69
35419;BME280;21525;41.240;16.500;2023-01-31T07:50:25;101692.19;;;20.55;40.53
35419;BME280;21525;41.240;16.500;2023-01-31T07:52:52;101709.50;;;18.88;43.39
35419;BME280;21525;41.240;16.500;2023-01-31T07:55:17;101720.28;;;19.35;43.35
35419;BME280;21525;41.240;16.500;2023-01-31T07:57:43;101714.09;;;21.24;40.47
35419;BME280;21525;41.240;16.500;2023-01-31T08:00:09;101711.25;;;22.85;38.06
35419;BME280;21525;41.240;16.500;2023-01-31T08:02:55;101701.06;;;24.47;33.53
35419;BME280;21525;41.240;16.500;2023-01-31T08:05:40;101714.66;;;23.23;32.13
35419;BME280;21525;41.240;16.500;2023-01-31T08:08:05;101715.13;;;22.22;32.64
35419;BME280;21525;41.240;16.500;2023-01-31T08:10:38;101713.41;;;23.99;31.44
35419;BME280;21525;41.240;16.500;2023-01-31T08:13:05;101719.44;;;24.99;30.37
35419;BME280;21525;41.240;16.500;2023-01-31T08:15:32;101713.88;;;23.90;29.28
35419;BME280;21525;41.240;16.500;2023-01-31T08:17:58;101722.47;;;23.95;28.71
35419;BME280;21525;41.240;16.500;2023-01-31T08:20:24;101720.34;;;23.69;28.15
35419;BME280;21525;41.240;16.500;2023-01-31T08:22:50;101715.00;;;23.34;26.96
35419;BME280;21525;41.240;16.500;2023-01-31T08:25:15;101716.28;;;22.72;27.67
35419;BME280;21525;41.240;16.500;2023-01-31T08:27:41;101709.69;;;22.43;27.79
35419;BME280;21525;41.240;16.500;2023-01-31T08:30:08;101728.72;;;22.14;28.25
35419;BME280;21525;41.240;16.500;2023-01-31T08:32:34;101737.47;;;21.96;29.31
35419;BME280;21525;41.240;16.500;2023-01-31T08:35:00;101746.28;;;21.56;28.56
35419;BME280;21525;41.240;16.500;2023-01-31T08:37:25;101729.81;;;22.66;27.87
35419;BME280;21525;41.240;16.500;2023-01-31T08:39:51;101736.50;;;21.14;29.20
35419;BME280;21525;41.240;16.500;2023-01-31T08:42:17;101747.88;;;20.26;30.00
35419;BME280;21525;41.240;16.500;2023-01-31T08:44:42;101756.41;;;19.06;32.43
35419;BME280;21525;41.240;16.500;2023-01-31T08:47:08;101765.56;;;20.00;32.71
35419;BME280;21525;41.240;16.500;2023-01-31T08:49:34;101772.81;;;19.69;31.20
35419;BME280;21525;41.240;16.500;2023-01-31T08:52:01;101783.06;;;18.68;33.05
35419;BME280;21525;41.240;16.500;2023-01-31T08:54:27;101781.47;;;18.92;33.63
35419;BME280;21525;41.240;16.500;2023-01-31T08:56:53;101778.28;;;18.51;35.14
35419;BME280;21525;41.240;16.500;2023-01-31T08:59:18;101778.41;;;19.85;31.67
35419;BME280;21525;41.240;16.500;2023-01-31T09:01:44;101781.09;;;20.33;31.29
35419;BME280;21525;41.240;16.500;2023-01-31T09:04:11;101783.09;;;20.26;30.74
35419;BME280;21525;41.240;16.500;2023-01-31T09:06:37;101791.00;;;18.96;32.24
35419;BME280;21525;41.240;16.500;2023-01-31T09:09:03;101795.53;;;18.91;33.31
35419;BME280;21525;41.240;16.500;2023-01-31T09:11:29;101796.25;;;20.28;31.71
35419;BME280;21525;41.240;16.500;2023-01-31T09:13:55;101781.84;;;20.13;31.43
35419;BME280;21525;41.240;16.500;2023-01-31T09:16:21;101805.75;;;21.03;30.89
35419;BME280;21525;41.240;16.500;2023-01-31T09:18:47;101812.13;;;19.78;32.35
35419;BME280;21525;41.240;16.500;2023-01-31T09:21:15;101814.63;;;20.31;31.66
35419;BME280;21525;41.240;16.500;2023-01-31T09:23:41;101814.84;;;20.25;31.71
35419;BME280;21525;41.240;16.500;2023-01-31T09:26:08;101823.06;;;19.11;33.91
35419;BME280;21525;41.240;16.500;2023-01-31T09:28:34;101802.31;;;18.99;33.20
35419;BME280;21525;41.240;16.500;2023-01-31T09:31:08;101810.97;;;19.85;33.51
35419;BME280;21525;41.240;16.500;2023-01-31T09:33:34;101818.50;;;20.21;32.40
35419;BME280;21525;41.240;16.500;2023-01-31T09:36:03;101822.44;;;19.84;33.57
35419;BME280;21525;41.240;16.500;2023-01-31T09:38:29;101830.91;;;20.19;31.81
35419;BME280;21525;41.240;16.500;2023-01-31T09:40:56;101826.84;;;20.82;31.70
35419;BME280;21525;41.240;16.500;2023-01-31T09:43:27;101840.09;;;20.33;32.62
35419;BME280;21525;41.240;16.500;2023-01-31T09:45:57;101838.47;;;19.52;31.90
35419;BME280;21525;41.240;16.500;2023-01-31T09:48:28;101832.31;;;20.29;31.48
35419;BME280;21525;41.240;16.500;2023-01-31T09:50:57;101839.03;;;20.39;31.00
35419;BME280;21525;41.240;16.500;2023-01-31T09:53:28;101840.59;;;22.21;31.13
35419;BME280;21525;41.240;16.500;2023-01-31T09:55:57;101831.69;;;22.42;31.25
35419;BME280;21525;41.240;16.500;2023-01-31T10:01:15;101839.88;;;20.64;30.93
35419;BME280;21525;41.240;16.500;2023-01-31T10:06:42;101830.34;;;21.05;28.89
35419;BME280;21525;41.240;16.500;2023-01-31T10:09:24;101822.78;;;21.41;28.72
35419;BME280;21525;41.240;16.500;2023-01-31T10:12:06;101829.31;;;21.95;29.19
35419;BME280;21525;41.240;16.500;2023-01-31T10:17:28;101812.78;;;22.10;29.56
35419;BME280;21525;41.240;16.500;2023-01-31T10:20:21;101817.66;;;22.40;29.23
35419;BME280;21525;41.240;16.500;2023-01-31T10:23:01;101833.66;;;20.65;29.45
35419;BME280;21525;41.240;16.500;2023-01-31T10:25:53;101821.91;;;22.24;30.80
35419;BME280;21525;41.240;16.500;2023-01-31T10:29:03;101815.22;;;21.53;29.26
35419;BME280;21525;41.240;16.500;2023-01-31T10:31:24;101826.47;;;22.00;30.43
35419;BME280;21525;41.240;16.500;2023-01-31T10:34:06;101827.66;;;21.07;32.34
35419;BME280;21525;41.240;16.500;2023-01-31T10:39:49;101823.34;;;21.90;31.69
35419;BME280;21525;41.240;16.500;2023-01-31T10:44:54;101838.28;;;21.29;31.82
35419;BME280;21525;41.240;16.500;2023-01-31T10:47:27;101839.94;;;21.31;32.38
35419;BME280;21525;41.240;16.500;2023-01-31T10:49:54;101835.94;;;21.43;32.33
35419;BME280;21525;41.240;16.500;2023-01-31T10:57:41;101846.84;;;21.77;32.43
35419;BME280;21525;41.240;16.500;2023-01-31T11:00:26;101835.84;;;21.44;33.70
35419;BME280;21525;41.240;16.500;2023-01-31T11:02:52;101845.19;;;20.86;36.21
35419;BME280;21525;41.240;16.500;2023-01-31T11:05:21;101851.63;;;21.02;37.04
35419;BME280;21525;41.240;16.500;2023-01-31T11:07:50;101849.41;;;20.68;37.49
35419;BME280;21525;41.240;16.500;2023-01-31T11:10:29;101839.91;;;20.39;37.99
35419;BME280;21525;41.240;16.500;2023-01-31T11:13:01;101829.03;;;19.97;39.33
35419;BME280;21525;41.240;16.500;2023-01-31T11:15:40;101833.34;;;19.75;40.20
35419;BME280;21525;41.240;16.500;2023-01-31T11:18:16;101828.00;;;19.76;40.08
35419;BME280;21525;41.240;16.500;2023-01-31T11:20:50;101828.84;;;19.51;40.44
35419;BME280;21525;41.240;16.500;2023-01-31T11:23:24;101817.81;;;19.91;39.96
35419;BME280;21525;41.240;16.500;2023-01-31T11:25:53;101823.75;;;19.44;40.59
35419;BME280;21525;41.240;16.500;2023-01-31T11:28:33;101831.75;;;19.41;40.74
35419;BME280;21525;41.240;16.500;2023-01-31T11:31:00;101833.41;;;19.45;41.25
35419;BME280;21525;41.240;16.500;2023-01-31T11:33:53;101824.66;;;19.43;41.11
35419;BME280;21525;41.240;16.500;2023-01-31T11:36:20;101834.63;;;19.62;40.71
35419;BME280;21525;41.240;16.500;2023-01-31T11:38:50;101825.03;;;19.59;41.02
35419;BME280;21525;41.240;16.500;2023-01-31T11:41:36;101831.78;;;20.19;40.02
35419;BME280;21525;41.240;16.500;2023-01-31T11:44:17;101827.06;;;19.23;36.91
35419;BME280;21525;41.240;16.500;2023-01-31T11:46:50;101799.63;;;18.73;32.62
35419;BME280;21525;41.240;16.500;2023-01-31T11:51:49;101827.50;;;19.09;31.71
35419;BME280;21525;41.240;16.500;2023-01-31T11:54:22;101829.13;;;19.69;32.89
35419;BME280;21525;41.240;16.500;2023-01-31T11:56:49;101812.28;;;19.45;32.67
35419;BME280;21525;41.240;16.500;2023-01-31T11:59:21;101829.94;;;19.43;32.73
35419;BME280;21525;41.240;16.500;2023-01-31T12:01:52;101819.72;;;19.33;34.00
35419;BME280;21525;41.240;16.500;2023-01-31T12:04:27;101826.50;;;19.41;33.26
35419;BME280;21525;41.240;16.500;2023-01-31T12:07:01;101821.00;;;20.00;31.66
35419;BME280;21525;41.240;16.500;2023-01-31T12:09:30;101832.03;;;20.38;31.45
35419;BME280;21525;41.240;16.500;2023-01-31T12:12:01;101824.13;;;19.60;31.69
35419;BME280;21525;41.240;16.500;2023-01-31T12:14:41;101818.69;;;19.65;30.59
35419;BME280;21525;41.240;16.500;2023-01-31T12:17:13;101837.22;;;20.14;30.16
35419;BME280;21525;41.240;16.500;2023-01-31T12:20:02;101802.41;;;19.24;30.55
35419;BME280;21525;41.240;16.500;2023-01-31T12:22:43;101821.94;;;19.46;31.77
35419;BME280;21525;41.240;16.500;2023-01-31T12:25:23;101817.38;;;19.52;31.48
35419;BME280;21525;41.240;16.500;2023-01-31T12:28:12;101821.69;;;19.26;31.60
35419;BME280;21525;41.240;16.500;2023-01-31T12:47:12;101837.75;;;20.74;30.06
35419;BME280;21525;41.240;16.500;2023-01-31T12:52:19;101837.56;;;20.78;29.07
35419;BME280;21525;41.240;16.500;2023-01-31T12:57:46;101842.03;;;21.00;29.28
35419;BME280;21525;41.240;16.500;2023-01-31T13:00:23;101840.66;;;20.66;29.16
35419;BME280;21525;41.240;16.500;2023-01-31T13:05:41;101839.16;;;21.06;29.57
35419;BME280;21525;41.240;16.500;2023-01-31T13:08:16;101833.75;;;21.09;29.59
35419;BME280;21525;41.240;16.500;2023-01-31T13:13:29;101841.41;;;20.47;29.53
35419;BME280;21525;41.240;16.500;2023-01-31T13:18:29;101838.81;;;20.45;29.71
35419;BME280;21525;41.240;16.500;2023-01-31T13:21:02;101846.16;;;20.12;29.93
35419;BME280;21525;41.240;16.500;2023-01-31T13:23:33;101852.72;;;20.50;29.12
35419;BME280;21525;41.240;16.500;2023-01-31T13:26:15;101835.53;;;20.13;30.25
35419;BME280;21525;41.240;16.500;2023-01-31T13:28:59;101853.25;;;20.10;31.56
35419;BME280;21525;41.240;16.500;2023-01-31T13:31:29;101848.19;;;20.29;30.34
35419;BME280;21525;41.240;16.500;2023-01-31T13:34:04;101846.63;;;19.72;30.29
35419;BME280;21525;41.240;16.500;2023-01-31T13:36:34;101847.56;;;19.96;30.04
35419;BME280;21525;41.240;16.500;2023-01-31T13:39:07;101850.19;;;19.71;30.67
35419;BME280;21525;41.240;16.500;2023-01-31T13:41:37;101851.59;;;19.81;30.70
35419;BME280;21525;41.240;16.500;2023-01-31T13:44:04;101861.25;;;19.26;30.43
35419;BME280;21525;41.240;16.500;2023-01-31T13:46:36;101864.38;;;19.39;30.81
35419;BME280;21525;41.240;16.500;2023-01-31T13:49:13;101864.78;;;19.55;29.95
35419;BME280;21525;41.240;16.500;2023-01-31T13:51:49;101869.63;;;20.20;30.46
35419;BME280;21525;41.240;16.500;2023-01-31T13:54:27;101874.50;;;19.53;32.86
35419;BME280;21525;41.240;16.500;2023-01-31T13:56:58;101873.59;;;19.54;31.51
35419;BME280;21525;41.240;16.500;2023-01-31T13:59:31;101869.25;;;19.53;31.56
35419;BME280;21525;41.240;16.500;2023-01-31T14:01:59;101863.25;;;20.00;29.95
35419;BME280;21525;41.240;16.500;2023-01-31T14:04:34;101868.06;;;19.33;30.32
35419;BME280;21525;41.240;16.500;2023-01-31T14:27:23;101874.59;;;18.92;30.58
35419;BME280;21525;41.240;16.500;2023-01-31T14:32:43;101882.06;;;18.78;30.33
35419;BME280;21525;41.240;16.500;2023-01-31T14:43:40;101891.84;;;19.32;29.72
35419;BME280;21525;41.240;16.500;2023-01-31T14:49:14;101887.41;;;18.42;30.99
35419;BME280;21525;41.240;16.500;2023-01-31T14:57:13;101889.91;;;19.38;29.60
35419;BME280;21525;41.240;16.500;2023-01-31T14:59:52;101888.19;;;19.37;29.13